sensor_id;sensor_type;location;lat;lon;timestamp;pressure;altitude;pressure_sealevel;temperature;humidity
64352;BME280;50680;52.626;-8.668;2023-07-09T00:00:52;101233.97;;;20.03;100.00
64352;BME280;50680;52.626;-8.668;2023-07-09T00:03:19;101237.31;;;19.85;100.00
64352;BME280;50680;52.626;-8.668;2023-07-09T00:05:48;101236.75;;;19.91;100.00
64352;BME280;50680;52.626;-8.668;2023-07-09T00:08:27;101236.22;;;19.98;100.00
64352;BME280;50680;52.626;-8.668;2023-07-09T00:10:56;101228.78;;;19.82;100.00
64352;BME280;50680;52.626;-8.668;2023-07-09T00:13:24;101229.34;;;19.85;100.00
64352;BME280;50680;52.626;-8.668;2023-07-09T00:15:54;101226.34;;;19.69;100.00
64352;BME280;50680;52.626;-8.668;2023-07-09T00:18:21;101231.03;;;19.36;100.00
64352;BME280;50680;52.626;-8.668;2023-07-09T00:20:48;101225.53;;;19.88;100.00
64352;BME280;50680;52.626;-8.668;2023-07-09T00:23:15;101226.97;;;19.92;100.00
64352;BME280;50680;52.626;-8.668;2023-07-09T00:25:43;101228.06;;;19.89;100.00
64352;BME280;50680;52.626;-8.668;2023-07-09T00:28:15;101228.22;;;19.98;100.00
64352;BME280;50680;52.626;-8.668;2023-07-09T00:30:44;101221.34;;;19.76;100.00
64352;BME280;50680;52.626;-8.668;2023-07-09T00:33:13;101222.75;;;19.89;100.00
64352;BME280;50680;52.626;-8.668;2023-07-09T00:35:45;101221.34;;;20.05;100.00
64352;BME280;50680;52.626;-8.668;2023-07-09T00:38:15;101221.94;;;19.99;100.00
64352;BME280;50680;52.626;-8.668;2023-07-09T00:41:00;101219.38;;;20.07;100.00
64352;BME280;50680;52.626;-8.668;2023-07-09T00:43:33;101222.78;;;20.09;100.00
64352;BME280;50680;52.626;-8.668;2023-07-09T00:49:06;101230.31;;;20.33;100.00
64352;BME280;50680;52.626;-8.668;2023-07-09T00:51:38;101223.84;;;20.45;100.00
64352;BME280;50680;52.626;-8.668;2023-07-09T00:54:17;101223.75;;;19.88;100.00
64352;BME280;50680;52.626;-8.668;2023-07-09T00:56:46;101221.91;;;20.08;100.00
64352;BME280;50680;52.626;-8.668;2023-07-09T00:59:21;101220.22;;;20.17;100.00
64352;BME280;50680;52.626;-8.668;2023-07-09T01:01:51;101219.41;;;19.87;100.00
64352;BME280;50680;52.626;-8.668;2023-07-09T01:04:20;101206.81;;;20.09;100.00
64352;BME280;50680;52.626;-8.668;2023-07-09T01:06:50;101215.03;;;20.16;100.00
64352;BME280;50680;52.626;-8.668;2023-07-09T01:09:18;101183.69;;;20.09;100.00
64352;BME280;50680;52.626;-8.668;2023-07-09T01:11:45;101214.03;;;20.36;100.00
64352;BME280;50680;52.626;-8.668;2023-07-09T01:14:15;101209.88;;;19.85;100.00
64352;BME280;50680;52.626;-8.668;2023-07-09T01:17:14;101203.97;;;20.10;100.00
64352;BME280;50680;52.626;-8.668;2023-07-09T01:19:44;101213.28;;;20.54;100.00
64352;BME280;50680;52.626;-8.668;2023-07-09T01:22:17;101204.19;;;20.56;100.00
64352;BME280;50680;52.626;-8.668;2023-07-09T01:24:49;101212.88;;;20.58;100.00
64352;BME280;50680;52.626;-8.668;2023-07-09T01:27:20;101211.22;;;20.47;100.00
64352;BME280;50680;52.626;-8.668;2023-07-09T01:29:47;101211.88;;;20.69;100.00
64352;BME280;50680;52.626;-8.668;2023-07-09T01:32:17;101199.72;;;20.66;100.00
64352;BME280;50680;52.626;-8.668;2023-07-09T01:34:51;101206.41;;;20.71;100.00
64352;BME280;50680;52.626;-8.668;2023-07-09T01:37:24;101211.84;;;20.89;100.00
64352;BME280;50680;52.626;-8.668;2023-07-09T01:39:52;101208.91;;;20.82;100.00
64352;BME280;50680;52.626;-8.668;2023-07-09T01:42:21;101220.00;;;20.67;100.00
64352;BME280;50680;52.626;-8.668;2023-07-09T01:44:51;101211.97;;;20.87;100.00
64352;BME280;50680;52.626;-8.668;2023-07-09T01:47:21;101206.09;;;20.83;100.00
64352;BME280;50680;52.626;-8.668;2023-07-09T01:49:51;101204.81;;;20.88;100.00
64352;BME280;50680;52.626;-8.668;2023-07-09T01:52:29;101208.78;;;21.11;100.00
64352;BME280;50680;52.626;-8.668;2023-07-09T01:54:57;101212.53;;;20.91;100.00
64352;BME280;50680;52.626;-8.668;2023-07-09T01:57:29;101207.63;;;20.86;100.00
64352;BME280;50680;52.626;-8.668;2023-07-09T02:00:07;101211.09;;;20.96;100.00
64352;BME280;50680;52.626;-8.668;2023-07-09T02:02:38;101213.72;;;20.69;100.00
64352;BME280;50680;52.626;-8.668;2023-07-09T02:05:05;101211.72;;;20.80;100.00
64352;BME280;50680;52.626;-8.668;2023-07-09T02:07:32;101207.22;;;20.81;100.00
64352;BME280;50680;52.626;-8.668;2023-07-09T02:09:59;101208.22;;;20.60;100.00
64352;BME280;50680;52.626;-8.668;2023-07-09T02:12:26;101207.59;;;20.39;100.00
64352;BME280;50680;52.626;-8.668;2023-07-09T02:14:53;101198.22;;;20.25;100.00
64352;BME280;50680;52.626;-8.668;2023-07-09T02:17:20;101202.69;;;20.34;100.00
64352;BME280;50680;52.626;-8.668;2023-07-09T02:19:47;101202.00;;;20.32;100.00
64352;BME280;50680;52.626;-8.668;2023-07-09T02:22:14;101200.56;;;20.38;100.00
64352;BME280;50680;52.626;-8.668;2023-07-09T02:24:41;101201.16;;;20.32;100.00
64352;BME280;50680;52.626;-8.668;2023-07-09T02:27:10;101194.84;;;20.33;100.00
64352;BME280;50680;52.626;-8.668;2023-07-09T02:29:37;101189.41;;;20.15;100.00
64352;BME280;50680;52.626;-8.668;2023-07-09T02:32:05;101185.41;;;20.48;100.00
64352;BME280;50680;52.626;-8.668;2023-07-09T02:34:32;101180.50;;;20.53;100.00
64352;BME280;50680;52.626;-8.668;2023-07-09T02:36:59;101185.13;;;20.61;100.00
64352;BME280;50680;52.626;-8.668;2023-07-09T02:39:26;101186.53;;;20.65;100.00
64352;BME280;50680;52.626;-8.668;2023-07-09T02:41:53;101183.56;;;20.68;100.00
64352;BME280;50680;52.626;-8.668;2023-07-09T02:44:20;101177.97;;;20.71;100.00
64352;BME280;50680;52.626;-8.668;2023-07-09T02:46:47;101176.25;;;20.60;100.00
64352;BME280;50680;52.626;-8.668;2023-07-09T02:49:15;101175.13;;;20.73;100.00
64352;BME280;50680;52.626;-8.668;2023-07-09T02:51:42;101170.19;;;20.78;100.00
64352;BME280;50680;52.626;-8.668;2023-07-09T02:54:09;101168.53;;;20.77;100.00
64352;BME280;50680;52.626;-8.668;2023-07-09T02:56:36;101161.84;;;20.63;100.00
64352;BME280;50680;52.626;-8.668;2023-07-09T02:59:04;101152.00;;;20.73;100.00
64352;BME280;50680;52.626;-8.668;2023-07-09T03:01:31;101151.69;;;20.76;100.00
64352;BME280;50680;52.626;-8.668;2023-07-09T03:04:01;101147.25;;;20.67;100.00
64352;BME280;50680;52.626;-8.668;2023-07-09T03:06:31;101151.66;;;20.86;100.00
64352;BME280;50680;52.626;-8.668;2023-07-09T03:09:02;101156.00;;;20.87;100.00
64352;BME280;50680;52.626;-8.668;2023-07-09T03:11:31;101156.41;;;20.92;100.00
64352;BME280;50680;52.626;-8.668;2023-07-09T03:13:59;101153.66;;;20.74;100.00
64352;BME280;50680;52.626;-8.668;2023-07-09T03:16:32;101152.16;;;20.72;100.00
64352;BME280;50680;52.626;-8.668;2023-07-09T03:19:00;101156.19;;;20.76;100.00
64352;BME280;50680;52.626;-8.668;2023-07-09T03:21:28;101149.59;;;20.80;100.00
64352;BME280;50680;52.626;-8.668;2023-07-09T03:23:55;101155.91;;;20.79;100.00
64352;BME280;50680;52.626;-8.668;2023-07-09T03:26:22;101148.03;;;20.77;100.00
64352;BME280;50680;52.626;-8.668;2023-07-09T03:28:49;101148.41;;;20.92;100.00
64352;BME280;50680;52.626;-8.668;2023-07-09T03:31:16;101135.94;;;20.83;100.00
64352;BME280;50680;52.626;-8.668;2023-07-09T03:33:43;101152.59;;;20.95;100.00
64352;BME280;50680;52.626;-8.668;2023-07-09T03:36:12;101134.59;;;20.69;100.00
64352;BME280;50680;52.626;-8.668;2023-07-09T03:38:39;101152.81;;;20.83;100.00
64352;BME280;50680;52.626;-8.668;2023-07-09T03:41:06;101154.25;;;20.68;100.00
64352;BME280;50680;52.626;-8.668;2023-07-09T03:43:33;101155.09;;;20.69;100.00
64352;BME280;50680;52.626;-8.668;2023-07-09T03:46:00;101159.59;;;20.68;100.00
64352;BME280;50680;52.626;-8.668;2023-07-09T03:48:28;101150.13;;;20.83;100.00
64352;BME280;50680;52.626;-8.668;2023-07-09T03:50:55;101148.47;;;21.00;100.00
64352;BME280;50680;52.626;-8.668;2023-07-09T03:53:22;101150.75;;;20.95;100.00
64352;BME280;50680;52.626;-8.668;2023-07-09T03:55:54;101147.00;;;20.88;100.00
64352;BME280;50680;52.626;-8.668;2023-07-09T03:58:22;101144.66;;;20.85;100.00
64352;BME280;50680;52.626;-8.668;2023-07-09T04:00:50;101140.19;;;20.76;100.00
64352;BME280;50680;52.626;-8.668;2023-07-09T04:03:17;101159.31;;;20.61;100.00
64352;BME280;50680;52.626;-8.668;2023-07-09T04:05:44;101149.22;;;20.65;100.00
64352;BME280;50680;52.626;-8.668;2023-07-09T04:08:10;101149.09;;;20.66;100.00
64352;BME280;50680;52.626;-8.668;2023-07-09T04:10:37;101144.19;;;20.52;100.00
64352;BME280;50680;52.626;-8.668;2023-07-09T04:13:04;101146.47;;;20.47;100.00
64352;BME280;50680;52.626;-8.668;2023-07-09T04:15:31;101151.56;;;20.21;100.00
64352;BME280;50680;52.626;-8.668;2023-07-09T04:17:59;101147.66;;;20.15;100.00
64352;BME280;50680;52.626;-8.668;2023-07-09T04:20:26;101141.50;;;20.15;100.00
64352;BME280;50680;52.626;-8.668;2023-07-09T04:22:54;101142.13;;;20.36;100.00
64352;BME280;50680;52.626;-8.668;2023-07-09T04:25:21;101147.78;;;20.14;100.00
64352;BME280;50680;52.626;-8.668;2023-07-09T04:27:49;101146.41;;;20.00;100.00
64352;BME280;50680;52.626;-8.668;2023-07-09T04:30:17;101129.63;;;19.80;100.00
64352;BME280;50680;52.626;-8.668;2023-07-09T04:32:45;101139.56;;;19.78;100.00
64352;BME280;50680;52.626;-8.668;2023-07-09T04:35:13;101147.41;;;19.89;100.00
64352;BME280;50680;52.626;-8.668;2023-07-09T04:37:41;101138.59;;;19.88;100.00
64352;BME280;50680;52.626;-8.668;2023-07-09T04:40:09;101144.34;;;19.94;100.00
64352;BME280;50680;52.626;-8.668;2023-07-09T04:42:40;101150.38;;;19.76;100.00
64352;BME280;50680;52.626;-8.668;2023-07-09T04:45:08;101144.31;;;20.03;100.00
64352;BME280;50680;52.626;-8.668;2023-07-09T04:47:37;101144.03;;;20.06;100.00
64352;BME280;50680;52.626;-8.668;2023-07-09T04:50:08;101142.06;;;20.08;100.00
64352;BME280;50680;52.626;-8.668;2023-07-09T04:52:35;101140.06;;;20.20;100.00
64352;BME280;50680;52.626;-8.668;2023-07-09T04:55:02;101126.94;;;20.09;100.00
64352;BME280;50680;52.626;-8.668;2023-07-09T04:57:29;101127.78;;;20.09;100.00
64352;BME280;50680;52.626;-8.668;2023-07-09T04:59:56;101128.22;;;19.95;100.00
64352;BME280;50680;52.626;-8.668;2023-07-09T05:02:23;101111.00;;;19.80;100.00
64352;BME280;50680;52.626;-8.668;2023-07-09T05:04:51;101108.72;;;20.14;100.00
64352;BME280;50680;52.626;-8.668;2023-07-09T05:07:18;101101.97;;;20.10;100.00
64352;BME280;50680;52.626;-8.668;2023-07-09T05:09:45;101114.47;;;20.09;100.00
64352;BME280;50680;52.626;-8.668;2023-07-09T05:12:12;101124.56;;;19.47;100.00
64352;BME280;50680;52.626;-8.668;2023-07-09T05:14:39;101129.63;;;19.80;100.00
64352;BME280;50680;52.626;-8.668;2023-07-09T05:17:07;101130.88;;;19.85;100.00
64352;BME280;50680;52.626;-8.668;2023-07-09T05:19:35;101129.59;;;19.89;100.00
64352;BME280;50680;52.626;-8.668;2023-07-09T05:22:02;101126.13;;;19.89;100.00
64352;BME280;50680;52.626;-8.668;2023-07-09T05:24:29;101133.97;;;19.81;100.00
64352;BME280;50680;52.626;-8.668;2023-07-09T05:26:56;101132.97;;;19.91;100.00
64352;BME280;50680;52.626;-8.668;2023-07-09T05:29:24;101127.25;;;19.86;100.00
64352;BME280;50680;52.626;-8.668;2023-07-09T05:31:51;101127.94;;;19.79;100.00
64352;BME280;50680;52.626;-8.668;2023-07-09T05:34:18;101119.22;;;19.67;100.00
64352;BME280;50680;52.626;-8.668;2023-07-09T05:36:45;101109.16;;;20.00;100.00
64352;BME280;50680;52.626;-8.668;2023-07-09T05:39:13;101103.97;;;19.98;100.00
64352;BME280;50680;52.626;-8.668;2023-07-09T05:41:40;101093.44;;;19.97;100.00
64352;BME280;50680;52.626;-8.668;2023-07-09T05:44:07;101084.91;;;20.03;100.00
64352;BME280;50680;52.626;-8.668;2023-07-09T05:46:35;101087.69;;;20.11;100.00
64352;BME280;50680;52.626;-8.668;2023-07-09T05:49:04;101077.34;;;20.08;100.00
64352;BME280;50680;52.626;-8.668;2023-07-09T05:51:31;101083.38;;;20.00;100.00
64352;BME280;50680;52.626;-8.668;2023-07-09T05:53:58;101077.94;;;19.92;100.00
64352;BME280;50680;52.626;-8.668;2023-07-09T05:56:25;101095.69;;;20.11;100.00
64352;BME280;50680;52.626;-8.668;2023-07-09T05:58:52;101094.28;;;20.07;100.00
64352;BME280;50680;52.626;-8.668;2023-07-09T06:01:19;101086.06;;;20.00;100.00
64352;BME280;50680;52.626;-8.668;2023-07-09T06:03:47;101079.03;;;19.99;100.00
64352;BME280;50680;52.626;-8.668;2023-07-09T06:06:15;101079.59;;;19.93;100.00
64352;BME280;50680;52.626;-8.668;2023-07-09T06:08:43;101102.44;;;19.86;100.00
64352;BME280;50680;52.626;-8.668;2023-07-09T06:11:10;101097.81;;;19.29;100.00
64352;BME280;50680;52.626;-8.668;2023-07-09T06:13:37;101093.63;;;19.76;100.00
64352;BME280;50680;52.626;-8.668;2023-07-09T06:16:04;101086.63;;;19.84;100.00
64352;BME280;50680;52.626;-8.668;2023-07-09T06:18:31;101081.84;;;19.88;100.00
64352;BME280;50680;52.626;-8.668;2023-07-09T06:21:00;101079.34;;;19.86;100.00
64352;BME280;50680;52.626;-8.668;2023-07-09T06:23:28;101086.34;;;19.87;100.00
64352;BME280;50680;52.626;-8.668;2023-07-09T06:25:56;101096.84;;;19.99;100.00
64352;BME280;50680;52.626;-8.668;2023-07-09T06:28:25;101095.13;;;20.07;100.00
64352;BME280;50680;52.626;-8.668;2023-07-09T06:30:53;101086.28;;;20.07;100.00
64352;BME280;50680;52.626;-8.668;2023-07-09T06:33:20;101086.56;;;20.14;100.00
64352;BME280;50680;52.626;-8.668;2023-07-09T06:35:48;101086.53;;;20.23;100.00
64352;BME280;50680;52.626;-8.668;2023-07-09T06:38:16;101099.59;;;20.54;100.00
64352;BME280;50680;52.626;-8.668;2023-07-09T06:40:43;101102.91;;;21.57;100.00
64352;BME280;50680;52.626;-8.668;2023-07-09T06:43:10;101098.13;;;22.66;100.00
64352;BME280;50680;52.626;-8.668;2023-07-09T06:45:37;101097.66;;;22.79;100.00
64352;BME280;50680;52.626;-8.668;2023-07-09T06:48:05;101104.53;;;23.65;100.00
64352;BME280;50680;52.626;-8.668;2023-07-09T06:50:34;101107.22;;;24.70;100.00
64352;BME280;50680;52.626;-8.668;2023-07-09T06:53:01;101104.16;;;25.36;100.00
64352;BME280;50680;52.626;-8.668;2023-07-09T06:55:28;101107.81;;;26.04;100.00
64352;BME280;50680;52.626;-8.668;2023-07-09T06:57:55;101107.00;;;26.19;100.00
64352;BME280;50680;52.626;-8.668;2023-07-09T07:00:22;101101.31;;;26.88;100.00
64352;BME280;50680;52.626;-8.668;2023-07-09T07:02:49;101103.19;;;27.09;100.00
64352;BME280;50680;52.626;-8.668;2023-07-09T07:05:16;101112.59;;;27.20;100.00
64352;BME280;50680;52.626;-8.668;2023-07-09T07:07:44;101106.81;;;27.60;100.00
64352;BME280;50680;52.626;-8.668;2023-07-09T07:10:11;101112.75;;;27.76;100.00
64352;BME280;50680;52.626;-8.668;2023-07-09T07:12:44;101100.72;;;27.72;100.00
64352;BME280;50680;52.626;-8.668;2023-07-09T07:15:16;101099.31;;;27.55;100.00
64352;BME280;50680;52.626;-8.668;2023-07-09T07:17:44;101099.28;;;28.05;100.00
64352;BME280;50680;52.626;-8.668;2023-07-09T07:20:12;101108.63;;;28.37;100.00
64352;BME280;50680;52.626;-8.668;2023-07-09T07:22:39;101108.06;;;28.48;100.00
64352;BME280;50680;52.626;-8.668;2023-07-09T07:25:07;101111.94;;;28.74;100.00
64352;BME280;50680;52.626;-8.668;2023-07-09T07:27:36;101119.22;;;28.80;100.00
64352;BME280;50680;52.626;-8.668;2023-07-09T07:30:03;101117.34;;;28.39;100.00
64352;BME280;50680;52.626;-8.668;2023-07-09T07:32:30;101117.97;;;28.06;100.00
64352;BME280;50680;52.626;-8.668;2023-07-09T07:34:58;101118.13;;;27.76;100.00
64352;BME280;50680;52.626;-8.668;2023-07-09T07:37:25;101118.97;;;27.77;100.00
64352;BME280;50680;52.626;-8.668;2023-07-09T07:39:52;101121.38;;;27.65;100.00
64352;BME280;50680;52.626;-8.668;2023-07-09T07:42:18;101115.59;;;28.25;100.00
64352;BME280;50680;52.626;-8.668;2023-07-09T07:44:46;101123.94;;;28.30;100.00
64352;BME280;50680;52.626;-8.668;2023-07-09T07:47:13;101119.81;;;27.77;100.00
64352;BME280;50680;52.626;-8.668;2023-07-09T07:49:40;101120.25;;;27.81;100.00
64352;BME280;50680;52.626;-8.668;2023-07-09T07:52:07;101126.78;;;27.72;100.00
64352;BME280;50680;52.626;-8.668;2023-07-09T07:54:34;101119.78;;;27.28;100.00
64352;BME280;50680;52.626;-8.668;2023-07-09T07:57:02;101117.78;;;27.00;100.00
64352;BME280;50680;52.626;-8.668;2023-07-09T07:59:29;101122.94;;;26.50;100.00
64352;BME280;50680;52.626;-8.668;2023-07-09T08:01:56;101126.44;;;26.95;100.00
64352;BME280;50680;52.626;-8.668;2023-07-09T08:04:23;101130.63;;;27.34;100.00
64352;BME280;50680;52.626;-8.668;2023-07-09T08:06:51;101123.84;;;26.87;100.00
64352;BME280;50680;52.626;-8.668;2023-07-09T08:09:19;101120.78;;;26.60;100.00
64352;BME280;50680;52.626;-8.668;2023-07-09T08:11:46;101136.66;;;26.55;100.00
64352;BME280;50680;52.626;-8.668;2023-07-09T08:14:13;101134.34;;;26.37;100.00
64352;BME280;50680;52.626;-8.668;2023-07-09T08:16:40;101137.78;;;26.76;100.00
64352;BME280;50680;52.626;-8.668;2023-07-09T08:19:07;101142.13;;;26.47;100.00
64352;BME280;50680;52.626;-8.668;2023-07-09T08:21:34;101142.13;;;26.47;100.00
64352;BME280;50680;52.626;-8.668;2023-07-09T08:24:02;101147.53;;;26.62;100.00
64352;BME280;50680;52.626;-8.668;2023-07-09T08:26:29;101150.03;;;26.34;100.00
64352;BME280;50680;52.626;-8.668;2023-07-09T08:28:56;101146.91;;;26.07;100.00
64352;BME280;50680;52.626;-8.668;2023-07-09T08:31:23;101154.63;;;26.10;100.00
64352;BME280;50680;52.626;-8.668;2023-07-09T08:33:50;101154.16;;;26.06;100.00
64352;BME280;50680;52.626;-8.668;2023-07-09T08:36:16;101146.88;;;25.69;100.00
64352;BME280;50680;52.626;-8.668;2023-07-09T08:38:44;101146.84;;;26.15;100.00
64352;BME280;50680;52.626;-8.668;2023-07-09T08:49:01;101139.97;;;28.38;100.00
64352;BME280;50680;52.626;-8.668;2023-07-09T08:51:38;101136.00;;;28.69;100.00
64352;BME280;50680;52.626;-8.668;2023-07-09T08:54:17;101141.78;;;29.14;100.00
64352;BME280;50680;52.626;-8.668;2023-07-09T08:56:53;101144.78;;;28.91;100.00
64352;BME280;50680;52.626;-8.668;2023-07-09T08:59:21;101137.69;;;29.38;100.00
64352;BME280;50680;52.626;-8.668;2023-07-09T09:01:53;101150.56;;;29.30;100.00
64352;BME280;50680;52.626;-8.668;2023-07-09T09:04:31;101150.06;;;29.13;100.00
64352;BME280;50680;52.626;-8.668;2023-07-09T09:07:12;101152.41;;;29.22;100.00
64352;BME280;50680;52.626;-8.668;2023-07-09T09:09:46;101152.16;;;29.17;100.00
64352;BME280;50680;52.626;-8.668;2023-07-09T09:13:10;101157.13;;;29.07;100.00
64352;BME280;50680;52.626;-8.668;2023-07-09T09:15:12;101150.03;;;29.06;100.00
64352;BME280;50680;52.626;-8.668;2023-07-09T09:17:41;101141.41;;;29.31;100.00
64352;BME280;50680;52.626;-8.668;2023-07-09T09:20:15;101154.13;;;29.63;100.00
64352;BME280;50680;52.626;-8.668;2023-07-09T09:22:47;101151.88;;;30.00;100.00
64352;BME280;50680;52.626;-8.668;2023-07-09T09:27:42;101146.00;;;30.30;100.00
64352;BME280;50680;52.626;-8.668;2023-07-09T09:30:21;101146.94;;;30.69;100.00
64352;BME280;50680;52.626;-8.668;2023-07-09T09:32:56;101148.66;;;30.57;100.00
64352;BME280;50680;52.626;-8.668;2023-07-09T09:35:34;101157.09;;;30.87;100.00
64352;BME280;50680;52.626;-8.668;2023-07-09T09:38:08;101147.72;;;31.28;100.00
64352;BME280;50680;52.626;-8.668;2023-07-09T09:40:36;101154.19;;;30.82;100.00
64352;BME280;50680;52.626;-8.668;2023-07-09T09:43:19;101153.72;;;30.20;100.00
64352;BME280;50680;52.626;-8.668;2023-07-09T09:45:49;101147.09;;;30.81;100.00
64352;BME280;50680;52.626;-8.668;2023-07-09T09:48:29;101147.84;;;31.08;100.00
64352;BME280;50680;52.626;-8.668;2023-07-09T09:50:58;101150.50;;;31.47;100.00
64352;BME280;50680;52.626;-8.668;2023-07-09T09:53:30;101147.66;;;31.35;100.00
64352;BME280;50680;52.626;-8.668;2023-07-09T09:56:04;101154.06;;;30.57;100.00
64352;BME280;50680;52.626;-8.668;2023-07-09T09:58:31;101168.13;;;30.00;100.00
64352;BME280;50680;52.626;-8.668;2023-07-09T10:00:59;101161.03;;;29.79;100.00
64352;BME280;50680;52.626;-8.668;2023-07-09T10:03:34;101145.03;;;28.96;100.00
64352;BME280;50680;52.626;-8.668;2023-07-09T10:06:19;101145.03;;;29.03;100.00
64352;BME280;50680;52.626;-8.668;2023-07-09T10:14:42;101163.03;;;30.58;100.00
64352;BME280;50680;52.626;-8.668;2023-07-09T10:22:54;101155.81;;;30.90;100.00
64352;BME280;50680;52.626;-8.668;2023-07-09T10:31:41;101160.78;;;31.38;100.00
64352;BME280;50680;52.626;-8.668;2023-07-09T10:39:40;101172.31;;;31.65;100.00
64352;BME280;50680;52.626;-8.668;2023-07-09T10:42:26;101171.78;;;31.75;100.00
64352;BME280;50680;52.626;-8.668;2023-07-09T10:45:03;101174.06;;;32.29;100.00
64352;BME280;50680;52.626;-8.668;2023-07-09T10:47:38;101174.75;;;32.24;100.00
64352;BME280;50680;52.626;-8.668;2023-07-09T10:50:13;101174.00;;;32.17;100.00
64352;BME280;50680;52.626;-8.668;2023-07-09T10:52:45;101171.66;;;32.57;100.00
64352;BME280;50680;52.626;-8.668;2023-07-09T10:55:32;101164.19;;;32.53;91.75
64352;BME280;50680;52.626;-8.668;2023-07-09T11:00:50;101179.94;;;32.99;100.00
64352;BME280;50680;52.626;-8.668;2023-07-09T11:03:19;101176.34;;;32.87;100.00
64352;BME280;50680;52.626;-8.668;2023-07-09T11:05:50;101178.47;;;32.85;100.00
64352;BME280;50680;52.626;-8.668;2023-07-09T11:08:21;101173.53;;;33.12;100.00
64352;BME280;50680;52.626;-8.668;2023-07-09T11:10:59;101176.84;;;33.57;100.00
64352;BME280;50680;52.626;-8.668;2023-07-09T11:13:41;101171.47;;;33.68;100.00
64352;BME280;50680;52.626;-8.668;2023-07-09T11:16:31;101172.69;;;33.96;96.09
64352;BME280;50680;52.626;-8.668;2023-07-09T11:19:01;101169.16;;;33.96;100.00
64352;BME280;50680;52.626;-8.668;2023-07-09T11:21:30;101169.97;;;33.96;100.00
64352;BME280;50680;52.626;-8.668;2023-07-09T11:24:00;101170.31;;;34.00;100.00
64352;BME280;50680;52.626;-8.668;2023-07-09T11:29:08;101185.25;;;32.94;100.00
64352;BME280;50680;52.626;-8.668;2023-07-09T11:31:38;101187.47;;;32.23;100.00
64352;BME280;50680;52.626;-8.668;2023-07-09T11:36:34;101178.28;;;31.74;100.00
64352;BME280;50680;52.626;-8.668;2023-07-09T11:39:02;101168.06;;;31.44;100.00
64352;BME280;50680;52.626;-8.668;2023-07-09T11:41:41;101176.91;;;31.65;100.00
64352;BME280;50680;52.626;-8.668;2023-07-09T11:44:17;101177.25;;;31.37;90.96
64352;BME280;50680;52.626;-8.668;2023-07-09T11:46:52;101180.19;;;31.35;95.66
64352;BME280;50680;52.626;-8.668;2023-07-09T11:49:23;101185.25;;;31.89;100.00
64352;BME280;50680;52.626;-8.668;2023-07-09T11:51:55;101182.72;;;32.37;100.00
64352;BME280;50680;52.626;-8.668;2023-07-09T11:54:24;101187.78;;;32.77;100.00
64352;BME280;50680;52.626;-8.668;2023-07-09T11:56:56;101184.72;;;32.86;87.57
64352;BME280;50680;52.626;-8.668;2023-07-09T11:59:24;101182.97;;;33.40;100.00
64352;BME280;50680;52.626;-8.668;2023-07-09T12:01:52;101177.88;;;33.86;100.00
64352;BME280;50680;52.626;-8.668;2023-07-09T12:04:25;101183.59;;;34.20;100.00
64352;BME280;50680;52.626;-8.668;2023-07-09T12:06:57;101186.16;;;33.79;97.40
64352;BME280;50680;52.626;-8.668;2023-07-09T12:09:41;101183.59;;;33.54;90.70
64352;BME280;50680;52.626;-8.668;2023-07-09T12:12:22;101183.53;;;33.72;86.97
64352;BME280;50680;52.626;-8.668;2023-07-09T12:14:50;101172.44;;;33.98;100.00
64352;BME280;50680;52.626;-8.668;2023-07-09T12:17:17;101173.31;;;33.56;100.00
64352;BME280;50680;52.626;-8.668;2023-07-09T12:19:44;101177.94;;;32.95;95.81
64352;BME280;50680;52.626;-8.668;2023-07-09T12:22:20;101154.28;;;32.03;76.78
64352;BME280;50680;52.626;-8.668;2023-07-09T12:24:49;101184.75;;;31.73;90.39
64352;BME280;50680;52.626;-8.668;2023-07-09T12:27:27;101188.66;;;31.52;93.12
64352;BME280;50680;52.626;-8.668;2023-07-09T12:29:56;101187.75;;;31.65;97.06
64352;BME280;50680;52.626;-8.668;2023-07-09T12:32:24;101183.28;;;31.77;99.80
64352;BME280;50680;52.626;-8.668;2023-07-09T12:34:56;101183.88;;;31.79;91.77
64352;BME280;50680;52.626;-8.668;2023-07-09T12:37:25;101196.88;;;31.96;100.00
64352;BME280;50680;52.626;-8.668;2023-07-09T12:39:55;101190.91;;;31.62;100.00
64352;BME280;50680;52.626;-8.668;2023-07-09T12:42:32;101190.59;;;31.38;94.45
64352;BME280;50680;52.626;-8.668;2023-07-09T12:45:00;101186.22;;;31.76;100.00
64352;BME280;50680;52.626;-8.668;2023-07-09T12:47:28;101199.50;;;32.09;100.00
64352;BME280;50680;52.626;-8.668;2023-07-09T12:50:09;101197.56;;;32.16;94.13
64352;BME280;50680;52.626;-8.668;2023-07-09T12:52:49;101185.63;;;31.92;87.38
64352;BME280;50680;52.626;-8.668;2023-07-09T12:55:24;101186.63;;;31.73;81.91
64352;BME280;50680;52.626;-8.668;2023-07-09T12:57:55;101195.16;;;31.44;94.20
64352;BME280;50680;52.626;-8.668;2023-07-09T13:00:29;101206.09;;;31.24;91.96
64352;BME280;50680;52.626;-8.668;2023-07-09T13:02:58;101203.19;;;31.26;98.97
64352;BME280;50680;52.626;-8.668;2023-07-09T13:05:26;101211.72;;;30.64;92.20
64352;BME280;50680;52.626;-8.668;2023-07-09T13:07:59;101214.00;;;30.67;94.46
64352;BME280;50680;52.626;-8.668;2023-07-09T13:10:29;101212.63;;;30.18;84.19
64352;BME280;50680;52.626;-8.668;2023-07-09T13:13:03;101215.13;;;30.13;87.88
64352;BME280;50680;52.626;-8.668;2023-07-09T13:15:39;101218.63;;;30.40;91.43
64352;BME280;50680;52.626;-8.668;2023-07-09T13:18:09;101227.16;;;30.04;95.05
64352;BME280;50680;52.626;-8.668;2023-07-09T13:20:39;101217.38;;;29.83;97.90
64352;BME280;50680;52.626;-8.668;2023-07-09T13:23:19;101217.94;;;29.58;92.78
64352;BME280;50680;52.626;-8.668;2023-07-09T13:25:46;101214.16;;;29.39;100.00
64352;BME280;50680;52.626;-8.668;2023-07-09T13:30:41;101218.53;;;28.92;98.59